Robinson Ranch, California
Current Conditions -  °F | °C
As of 4:53 PM on Thursday 27 Nov 2014 (Local Time) from KSNA Reporting Station
Few Clouds Few Clouds  
Wind Chill: 75°   Ceiling: Unl
Heat Index: 75°   Visibility: 10mi
Dew Point: 42°   Wind: 6mph
Humidity: 31%   Direction: 210°SSW
Pressure: 29.99"   Gusts: NA
Location:  33.6153°N, 117.532°W
Report Text: KSNA 280053Z 21005KT 10SM FEW250 24/06 A2999 RMK AO2 SLP157 T02390056
Loading
Personal Weather Stations






























Interactive Weather Map New forecast layout! Learn more

10-Day Weather Forecast

Advertisements
Track Severe Weather on mobile